Glenwood Springs, CO

12:33 PM MDT on September 18, 2014 (GMT -0600)
Aspen-Pitkin County / Sardy Field | Change Station
CLOSE
Current Station
Airport
Location: Aspen,
Elevation: 7822 ft
Nearby Weather Stations

Elev 7822 ft 39.23 °N, 106.87 °W | Updated 40 minutes ago

Clear
Clear
74 °F
Feels Like 74 °F
N
6
Wind Variable Wind from North

Today
High -- | Low -- °F
--% Chance of Precip.
Yesterday
High -- | Low -- °F
Precip. -- in
6:53 AM 7:12 PM
Waning Crescent, 25% visible
Pressure 29.83 in
Visibility 10.0 miles
Clouds Clear
Dew Point 38 °F
Humidity 27%
Rainfall 0.00 in
Snow Depth 10 in , 0 in , 9 in
UV 8 out of 12
Pollen 5.70 out of 12
Air Quality Not available.
Flu Activity Not available.
METAR KASE 181753Z 01005KT 10SM CLR 23/03 A3020 RMK AO2 SLP100 T02330033 10233 20061 58014

More Conditions Fewer Conditions

Pressure 29.83 in
Visibility 10.0 miles
Clouds Clear
Dew Point 38 °F
Humidity 27%
Rainfall 0.00 in
Snow Depth 10 in , 0 in , 9 in
UV 8 out of 12
Pollen 5.70 out of 12
Air Quality Not available.
Flu Activity Not available.
METAR KASE 181753Z 01005KT 10SM CLR 23/03 A3020 RMK AO2 SLP100 T02330033 10233 20061 58014

More Conditions Fewer Conditions

10-Day Weather Forecast

Almanac

Astronomy

Sep. 18, 2014 Rise Set
Actual Time 6:53 AM MDT 7:12 PM MDT
Civil Twilight 6:26 AM MDT 7:39 PM MDT
Nautical Twilight 5:54 AM MDT 8:11 PM MDT
Astronomical Twilight 5:22 AM MDT 8:43 PM MDT
Moon 1:48 AM MDT 4:05 PM MDT
Length of Visible Light 13h 13m
Length of Day
12h 19m
Tomorrow will be 2m 33s shorter.
Waning Crescent, 25% of the Moon is Illuminated
Today
Waning Crescent
Sep 24
New
Oct 1
First Quarter
Oct 8
Full
Oct 15
Last Quarter

Today's Extremes

State Highs State Lows

Community

WunderPhotos

Upload Photos

1,754,417 photos uploaded!

WunderBlogs® & News

Nearby

Snow Depth

Station Depth Elevation
Mancos 10 in 10000 ft
Copper Mountain 0 in 10500 ft
Loveland Basin 9 in 11400 ft
Mccoy Park 9 in 9480 ft
Apishapa 0 in 10000 ft

Earthquake Activity

City Distance Mag. Time & Date
No recent earthquake activity has been reported nearby.
Minimum magnitude displayed is 2.5.

Coastal Water Temperatures

Place Temperature
No Stations Reporting

Nearby Weather Stations